Flugwetter Haslital by BIRDWING.ch
alle Angaben ohne Gewähr
code & design by arbyte.ch


Planplatten 2245m
22.07.19  20:002|7  WNW14.5°C87%
22.07.19  19:456|9  WNW14.4°C87%
22.07.19  19:303|8  NW14.6°C88%
22.07.19  19:006|11  WNW15.8°C89%
22.07.19  18:307|16  W16.5°C86%
➜ Windstation Planplatten

Meiringen 589m
22.07.19  20:0012|25  NNW26.5°C55%
22.07.19  19:5017|31  NNW27.2°C50%
22.07.19  19:4022|37  NNW27.0°C51%
22.07.19  19:2024|35  NNW27.2°C50%
22.07.19  19:0018|34  N28.2°C47%

Brienz 567m
22.07.19  20:0014|26  O
22.07.19  19:5015|25  OSO
22.07.19  19:4016|27  O
22.07.19  19:2016|26  O
22.07.19  19:0012|22  O

Gütsch ob Andermatt 2283m
22.07.19  20:0017|22  NNW13.6°C84%
22.07.19  19:5017|22  NNW13.9°C83%
22.07.19  19:4017|22  NNW14.1°C81%
22.07.19  19:2016|21  NNW14.3°C82%
22.07.19  19:0016|21  NNW14.7°C79%

Höhematte Metropole 566m
22.07.19  20:0815|16  O27.2°C52%
22.07.19  20:0414|16  O27.5°C51%
22.07.19  19:5813|15  O27.9°C48%
22.07.19  19:487|11  ONO28.6°C48%
22.07.19  19:385|7  NO28.5°C47%

Niederhorn 1950m
22.07.19  20:085|6  NNW17.5°C77%
22.07.19  20:024|5  NNW17.8°C75%
22.07.19  19:580|5  NNW18.4°C74%
22.07.19  19:480|3  NNW20.3°C67%
22.07.19  19:381|7  NNW19.0°C71%

. . . . . . . . .

Bänzlauistock 2528m
22.07.19  19:306|10  NNW
22.07.19  19:005|11  NW
22.07.19  18:306|12  NW
22.07.19  18:003|10  NW

Sidelhorn 2733m
22.07.19  19:3018|23  N
22.07.19  19:0021|25  N
22.07.19  18:3020|26  NNO
22.07.19  18:0023|27  NNO

Brienzer Rothorn 2348m
22.07.19  19:301|6  NW
22.07.19  19:001|6  N
22.07.19  18:301|8  W
22.07.19  18:004|10  W

Altdorf 438m
22.07.19  20:004|7  W26.5°C55%
22.07.19  19:505|10  W26.5°C57%
22.07.19  19:408|12  NW26.5°C55%
22.07.19  19:207|14  NW26.8°C54%
22.07.19  19:007|14  WNW27.4°C52%

Chasseral 1599m
22.07.19  20:0016|19  NNO17.7°C75%
22.07.19  19:5017|21  NNO17.9°C74%
22.07.19  19:4017|24  NNO18.2°C74%
22.07.19  19:2018|24  NNO18.8°C71%
22.07.19  19:0017|22  NNO19.0°C70%

Eggishorn 2893m
22.07.19  20:005|10  NW12.1°C60%
22.07.19  19:505|10  WNW12.1°C67%
22.07.19  19:403|9  W13.5°C60%
22.07.19  19:204|9  WNW14.5°C55%
22.07.19  19:008|14  NNW12.6°C63%

Giswil 471m
22.07.19  20:002|4  W26.2°C67%
22.07.19  19:502|4  NNW26.4°C67%
22.07.19  19:401|3  N26.8°C63%
22.07.19  19:203|7  N27.0°C63%
22.07.19  19:003|7  ONO28.0°C59%

Glarus 517m
22.07.19  20:003|7  OSO24.0°C64%
22.07.19  19:504|7  OSO25.4°C57%
22.07.19  19:408|20  W26.2°C50%
22.07.19  19:2017|24  W27.4°C45%
22.07.19  19:0016|23  W27.3°C49%

Gornergrat 3129m
22.07.19  20:0011|22  NW11.1°C65%
22.07.19  19:5011|18  WNW10.8°C63%
22.07.19  19:4013|19  NW11.1°C64%
22.07.19  19:2015|25  NW11.3°C61%
22.07.19  19:0015|24  NW11.8°C55%

Grimsel Hospiz 1980m
22.07.19  20:0013|17  N15.8°C83%
22.07.19  19:5014|19  N15.9°C81%
22.07.19  19:4016|22  N16.0°C80%
22.07.19  19:2016|22  N16.4°C76%
22.07.19  19:0016|19  N16.7°C73%

Jungfraujoch 3580m
22.07.19  20:006|15  NNW6.1°C78%
22.07.19  19:509|17  NW6.0°C89%
22.07.19  19:409|17  NW6.3°C79%
22.07.19  19:2012|17  NW6.3°C85%
22.07.19  19:006|14  NW6.5°C87%

Luzern 454m
22.07.19  20:003|4  S26.7°C56%
22.07.19  19:503|5  SSO27.5°C53%
22.07.19  19:404|8  O28.0°C50%
22.07.19  19:203|5  S27.4°C56%
22.07.19  19:001|3  S28.2°C45%

Le Moléson 1974m
22.07.19  20:006|9  O16.8°C68%
22.07.19  19:507|13  NO16.7°C67%
22.07.19  19:409|13  NNO16.9°C65%
22.07.19  19:207|13  NNO17.7°C66%
22.07.19  19:0011|18  NNO17.8°C65%

Napf 1404m
22.07.19  20:0011|19  NO19.9°C62%
22.07.19  19:5011|19  NO20.0°C62%
22.07.19  19:4011|21  NO19.9°C64%
22.07.19  19:209|17  NO20.2°C65%
22.07.19  19:007|16  NNO20.4°C64%

Säntis 2502m
22.07.19  20:0010|18  W10.9°C94%
22.07.19  19:506|17  W10.9°C92%
22.07.19  19:4010|21  W10.8°C94%
22.07.19  19:207|20  W10.9°C96%
22.07.19  19:0012|21  W11.1°C96%

Thun 570m
22.07.19  20:005|8  W27.4°C60%
22.07.19  19:502|4  WSW27.7°C61%
22.07.19  19:402|3  W28.2°C54%
22.07.19  19:204|6  SW28.1°C56%
22.07.19  19:007|9  WSW28.4°C49%

Titlis 3040m
22.07.19  20:0016|23  WSW7.9°C95%
22.07.19  19:5017|30  WSW8.1°C94%
22.07.19  19:4016|23  WSW8.2°C94%
22.07.19  19:2010|18  SW7.9°C98%
22.07.19  19:0013|25  SW8.3°C99%


QNH Druckwerte vom 22.07.2019 20:00
Interlaken1023.1 hPa
Zürich (SMA)1023.9 hPa
Acquarossa / Comprovasco1022.6 hPa
Locarno/Monti1021.0 hPa
Genève-Cointrin1021.5 hPa

Δ Comprovasco - Interlaken in hPa
22.07.19  20:001022.6 - 1023.1 =-0.5
22.07.19  19:501022.5 - 1023.1 =-0.6
22.07.19  19:301022.5 - 1023.1 =-0.6
22.07.19  19:001022.2 - 1023.0 =-0.8
22.07.19  18:001022.2 - 1023.2 =-1.0

Δ Locarno - Zürich in hPa
22.07.19  20:001021.0 - 1023.9 =-2.9
22.07.19  19:501021.0 - 1023.9 =-2.9
22.07.19  19:301021.0 - 1023.9 =-2.9
22.07.19  19:001020.9 - 1024.1 =-3.2
22.07.19  18:001021.1 - 1024.2 =-3.1

Δ Genf - Bodensee in hPa
22.07.19  20:001021.5 - 1023.3 =-1.8
22.07.19  19:501021.5 - 1023.3 =-1.8
22.07.19  19:301021.5 - 1023.3 =-1.8
22.07.19  19:001021.5 - 1023.4 =-1.9
22.07.19  18:001021.8 - 1023.5 =-1.7

Temp Meiringen - Planplatten in °C/100m
22.07.19  20:0026.5 - 14.5 = 12.00.72
22.07.19  19:3027.3 - 15.1 = 12.20.74
22.07.19  19:0028.2 - 16.5 = 11.70.71

Temp Lehn - Niederhorn in °C/100m
22.07.19  20:0826.4 - 17.5 = 8.90.64
22.07.19  19:5227.3 - 19.1 = 8.20.59
22.07.19  19:3827.4 - 19.0 = 8.40.61

Temp Luzern - Pilatus in °C/100m
22.07.19  20:0026.7 - 15.2 = 11.50.70
22.07.19  19:3027.5 - 15.2 = 12.30.74
22.07.19  19:0028.2 - 15.1 = 13.10.79